Time;durP1;ratioP1;P1;durP2;ratioP2;P2;SDS_P1;SDS_P2;PMS_P1;PMS_P2;Temp;Humidity;BMP_temperature;BMP_pressure;BME280_temperature;BME280_humidity;BME280_pressure;Samples;Min_cycle;Max_cycle;Signal;HPM_P1;HPM_P2
2022/11/07 00:02:19;;;;;;;2.97;2.30;;;;;;;10.98;73.47;99516.59;5081540;28;20508;-62
2022/11/07 00:04:46;;;;;;;3.67;2.30;;;;;;;10.98;73.85;99516.59;5098992;28;20489;-61
2022/11/07 00:07:14;;;;;;;4.30;2.10;;;;;;;11.03;73.60;99511.59;5084694;28;20477;-62
2022/11/07 00:09:40;;;;;;;2.43;2.20;;;;;;;11.06;73.57;99521.97;5095459;28;20437;-62
2022/11/07 00:12:07;;;;;;;2.87;2.50;;;;;;;11.05;74.00;99514.94;5088947;28;20481;-62
2022/11/07 00:14:34;;;;;;;4.67;2.50;;;;;;;11.05;73.90;99526.47;5090963;28;20505;-61
2022/11/07 00:17:01;;;;;;;3.37;2.30;;;;;;;10.91;74.33;99511.88;5079228;28;20512;-62
2022/11/07 00:19:27;;;;;;;4.77;2.10;;;;;;;11.08;73.76;99520.78;5080831;28;20550;-62
2022/11/07 00:21:54;;;;;;;7.30;2.83;;;;;;;11.06;74.13;99541.53;5087522;28;20480;-62
2022/11/07 00:24:22;;;;;;;4.33;2.23;;;;;;;11.05;73.84;99533.66;5093488;28;21057;-61
2022/11/07 00:26:49;;;;;;;6.00;2.70;;;;;;;11.12;73.94;99543.53;5081870;28;20472;-62
2022/11/07 00:29:17;;;;;;;4.13;2.50;;;;;;;11.08;74.16;99544.88;5099743;28;20933;-61
2022/11/07 00:31:44;;;;;;;3.60;2.80;;;;;;;11.07;74.23;99553.06;5088683;28;20482;-62
2022/11/07 00:34:11;;;;;;;5.03;3.27;;;;;;;11.12;74.42;99556.09;5091624;28;20770;-62
2022/11/07 00:36:38;;;;;;;2.63;2.33;;;;;;;11.09;74.58;99551.06;5093523;28;20467;-62
2022/11/07 00:39:05;;;;;;;5.10;2.67;;;;;;;11.19;74.00;99556.28;5097510;28;20440;-62
2022/11/07 00:41:33;;;;;;;4.03;2.23;;;;;;;11.06;74.17;99562.09;5080376;28;20476;-62
2022/11/07 00:44:00;;;;;;;5.03;2.20;;;;;;;11.05;74.35;99566.59;5093258;28;20499;-62
2022/11/07 00:46:26;;;;;;;5.20;2.30;;;;;;;11.09;74.44;99562.59;5092574;28;21075;-62
2022/11/07 00:48:53;;;;;;;5.63;2.87;;;;;;;11.02;74.65;99566.91;5081283;28;20894;-62
2022/11/07 00:51:22;;;;;;;3.80;2.20;;;;;;;11.14;74.46;99563.94;5083267;28;20492;-61
2022/11/07 00:53:48;;;;;;;4.90;1.90;;;;;;;11.09;74.62;99564.44;5089701;28;20455;-62
2022/11/07 00:56:17;;;;;;;3.80;2.73;;;;;;;11.07;74.63;99561.06;5104450;28;20475;-61
2022/11/07 00:58:45;;;;;;;4.97;2.63;;;;;;;11.09;74.45;99562.59;5084092;28;20444;-62
2022/11/07 01:01:15;;;;;;;4.40;2.60;;;;;;;11.09;74.39;99565.28;5090625;28;20513;-61
2022/11/07 01:06:32;;;;;;;3.07;2.67;;;;;;;11.20;74.05;99564.16;5062025;28;20476;-61
2022/11/07 01:08:59;;;;;;;6.77;2.60;;;;;;;11.06;74.71;99562.09;5085588;28;20932;-62
2022/11/07 01:11:27;;;;;;;3.03;2.50;;;;;;;11.11;74.64;99563.28;5092946;28;20506;-61
2022/11/07 01:13:56;;;;;;;6.20;2.67;;;;;;;11.18;74.43;99571.50;5103759;28;20535;-62
2022/11/07 01:16:23;;;;;;;2.60;1.90;;;;;;;11.11;74.74;99579.34;5103278;28;21061;-61
2022/11/07 01:18:50;;;;;;;5.30;2.57;;;;;;;11.14;74.66;99577.31;5085376;28;20472;-60
2022/11/07 01:21:16;;;;;;;3.23;2.23;;;;;;;11.25;74.38;99580.56;5094931;28;20506;-61
2022/11/07 01:23:43;;;;;;;2.40;2.20;;;;;;;11.10;75.23;99579.50;5067642;28;21032;-61
2022/11/07 01:26:12;;;;;;;2.50;2.30;;;;;;;11.14;75.15;99583.50;5095365;28;20467;-61
2022/11/07 01:28:38;;;;;;;3.03;2.73;;;;;;;11.18;74.95;99594.72;5102102;28;20440;-62
2022/11/07 01:31:08;;;;;;;4.90;2.83;;;;;;;11.18;74.80;99584.03;5092074;28;20457;-62
2022/11/07 01:33:35;;;;;;;5.67;2.37;;;;;;;11.28;74.79;99587.41;5083869;28;20428;-62
2022/11/07 01:36:03;;;;;;;3.30;1.70;;;;;;;11.28;74.96;99593.63;5084214;28;20502;-62
2022/11/07 01:38:30;;;;;;;4.43;2.40;;;;;;;11.24;74.96;99594.09;5090855;28;20478;-62
2022/11/07 01:43:43;;;;;;;4.60;2.30;;;;;;;11.24;75.05;99589.56;5085548;28;20491;-62
2022/11/07 01:46:11;;;;;;;6.10;2.70;;;;;;;11.18;75.50;99579.53;5076939;28;20507;-61
2022/11/07 01:48:38;;;;;;;3.97;2.20;;;;;;;11.25;75.39;99583.22;5095461;28;20474;-62
2022/11/07 01:51:05;;;;;;;2.53;1.70;;;;;;;11.27;75.37;99583.91;5095365;28;20492;-62
2022/11/07 01:53:33;;;;;;;3.60;2.10;;;;;;;11.32;75.31;99594.13;5097566;28;20483;-61
2022/11/07 01:56:00;;;;;;;8.83;2.00;;;;;;;11.28;75.34;99593.63;5092837;28;20748;-62
2022/11/07 01:58:27;;;;;;;5.67;2.20;;;;;;;11.27;75.57;99591.09;5084730;28;20464;-62
2022/11/07 02:00:53;;;;;;;4.27;2.40;;;;;;;11.32;75.68;99594.13;5082012;28;20536;-61
2022/11/07 02:03:21;;;;;;;4.43;2.17;;;;;;;11.27;75.89;99593.78;5083416;28;20543;-61
2022/11/07 02:05:53;;;;;;;3.43;2.80;;;;;;;11.31;75.82;99590.59;5087210;28;20563;-60
2022/11/07 02:08:20;;;;;;;4.63;2.23;;;;;;;11.33;75.67;99593.13;5103138;28;20523;-61
2022/11/07 02:10:47;;;;;;;6.37;2.47;;;;;;;11.27;76.07;99585.75;5083439;28;20987;-61
2022/11/07 02:13:17;;;;;;;3.70;2.07;;;;;;;11.33;75.95;99586.94;5089557;28;20444;-62
2022/11/07 02:15:44;;;;;;;8.60;2.50;;;;;;;11.43;75.46;99588.47;5097086;28;20472;-62
2022/11/07 02:18:11;;;;;;;3.97;1.93;;;;;;;11.40;75.93;99583.44;5089343;28;20467;-62
2022/11/07 02:20:39;;;;;;;2.80;2.00;;;;;;;11.37;76.11;99589.13;5098226;28;20991;-63
2022/11/07 02:23:07;;;;;;;3.60;1.73;;;;;;;11.41;75.79;99585.13;5083588;28;20468;-62
2022/11/07 02:25:35;;;;;;;2.50;1.90;;;;;;;11.31;76.32;99593.28;5083571;28;20536;-63
2022/11/07 02:28:04;;;;;;;6.40;2.57;;;;;;;11.29;76.49;99586.41;5100623;28;20467;-63
2022/11/07 02:30:33;;;;;;;5.90;1.90;;;;;;;11.34;76.19;99588.63;5084759;27;20499;-62
2022/11/07 02:33:00;;;;;;;3.10;2.07;;;;;;;11.40;76.14;99582.59;5073359;28;20496;-62
2022/11/07 02:35:35;;;;;;;3.37;1.90;;;;;;;11.41;76.19;99586.97;5082186;28;20487;-63
2022/11/07 02:38:02;;;;;;;1.97;1.63;;;;;;;11.39;76.54;99578.28;5082455;28;20499;-63
2022/11/07 02:40:30;;;;;;;2.27;1.83;;;;;;;11.30;76.59;99577.38;5082602;28;20539;-63
2022/11/07 02:42:58;;;;;;;3.70;2.10;;;;;;;11.33;76.50;99573.56;5099606;28;20742;-63
2022/11/07 02:45:27;;;;;;;5.70;2.27;;;;;;;11.38;76.55;99574.75;5100760;28;20549;-63
2022/11/07 02:47:54;;;;;;;3.17;2.10;;;;;;;11.24;76.91;99568.16;5100544;28;20463;-62
2022/11/07 02:50:21;;;;;;;3.83;2.10;;;;;;;11.30;76.85;99575.56;5092279;28;20457;-62
2022/11/07 02:52:47;;;;;;;3.03;1.87;;;;;;;11.25;77.16;99583.22;5082838;28;20456;-62
2022/11/07 02:55:15;;;;;;;3.53;2.33;;;;;;;11.27;76.93;99580.41;5099129;28;20507;-62
2022/11/07 02:57:42;;;;;;;6.23;2.30;;;;;;;11.18;77.34;99595.59;5089269;28;20471;-63
2022/11/07 03:00:12;;;;;;;3.50;2.37;;;;;;;11.10;77.86;99588.34;5098036;28;20448;-62
2022/11/07 03:02:39;;;;;;;2.53;2.07;;;;;;;11.19;77.68;99591.91;5097432;28;20488;-63
2022/11/07 03:05:07;;;;;;;3.43;1.80;;;;;;;11.23;77.48;99593.25;5086728;28;20515;-63
2022/11/07 03:07:33;;;;;;;5.80;2.07;;;;;;;11.15;78.04;99593.22;5093884;28;20460;-62
2022/11/07 03:10:00;;;;;;;2.37;1.90;;;;;;;11.22;77.83;99593.44;5093863;28;20443;-63
2022/11/07 03:12:26;;;;;;;2.73;1.60;;;;;;;11.37;77.45;99604.34;5090679;28;20512;-61
2022/11/07 03:14:53;;;;;;;2.80;1.57;;;;;;;11.44;77.33;99600.88;5083707;28;20448;-62
2022/11/07 03:17:21;;;;;;;2.23;1.80;;;;;;;11.34;77.53;99599.34;5088174;28;20505;-62
2022/11/07 03:19:47;;;;;;;5.03;2.10;;;;;;;11.36;77.31;99600.84;5096116;28;20488;-62
2022/11/07 03:22:14;;;;;;;5.63;1.77;;;;;;;11.38;77.55;99603.34;5082211;28;20496;-62
2022/11/07 03:24:41;;;;;;;1.93;1.30;;;;;;;11.39;77.36;99613.06;5083023;28;20464;-62
2022/11/07 03:27:07;;;;;;;3.90;2.00;;;;;;;11.41;77.21;99603.88;5091557;28;20515;-61
2022/11/07 03:29:34;;;;;;;2.80;1.93;;;;;;;11.35;77.29;99576.91;5089161;28;20475;-62
2022/11/07 03:32:00;;;;;;;4.53;1.90;;;;;;;11.40;77.40;99602.16;5094938;28;20514;-62
2022/11/07 03:34:28;;;;;;;5.50;1.63;;;;;;;11.33;77.51;99608.34;5090956;28;20880;-62
2022/11/07 03:36:55;;;;;;;1.63;1.50;;;;;;;11.35;77.40;99603.66;5091658;28;20511;-62
2022/11/07 03:39:22;;;;;;;2.40;1.50;;;;;;;11.38;77.46;99614.06;5086122;28;20472;-62
2022/11/07 03:41:48;;;;;;;3.77;2.30;;;;;;;11.42;77.33;99616.25;5092705;28;20498;-62
2022/11/07 03:44:15;;;;;;;3.07;1.73;;;;;;;11.32;77.37;99615.53;5097628;28;20472;-62
2022/11/07 03:46:41;;;;;;;4.43;1.47;;;;;;;11.47;76.82;99608.56;5088133;28;20509;-62
2022/11/07 03:49:08;;;;;;;2.70;1.57;;;;;;;11.54;76.72;99607.91;5087126;28;20559;-61
2022/11/07 03:51:36;;;;;;;3.53;1.93;;;;;;;11.37;77.13;99601.66;5082305;28;20518;-62
2022/11/07 03:54:03;;;;;;;5.87;1.80;;;;;;;11.44;76.80;99616.94;5081866;28;20455;-62
2022/11/07 03:56:29;;;;;;;2.80;2.03;;;;;;;11.40;77.18;99612.03;5095927;28;20476;-62
2022/11/07 03:58:56;;;;;;;3.53;1.90;;;;;;;11.35;77.41;99615.19;5087356;28;20471;-62
2022/11/07 04:01:22;;;;;;;1.80;1.57;;;;;;;11.37;77.36;99625.75;5080465;28;20614;-62
2022/11/07 04:03:49;;;;;;;5.17;1.97;;;;;;;11.44;77.07;99616.94;5081626;28;20976;-62
2022/11/07 04:06:16;;;;;;;3.83;1.60;;;;;;;11.40;77.05;99614.72;5088347;28;20492;-62
2022/11/07 04:08:44;;;;;;;5.10;1.70;;;;;;;11.43;77.01;99625.13;5096345;28;20470;-62
2022/11/07 04:17:17;;;;;;;3.80;2.00;;;;;;;11.41;77.11;99635.97;5092663;28;20484;-62
2022/11/07 04:19:27;;;;;;;5.20;2.13;;;;;;;11.41;77.11;99633.31;5081528;28;20458;-62
2022/11/07 04:21:53;;;;;;;4.23;2.40;;;;;;;11.39;77.37;99640.66;5092046;28;20499;-63
2022/11/07 04:24:21;;;;;;;10.30;2.67;;;;;;;11.43;77.11;99635.81;5090480;28;20467;-61
2022/11/07 04:29:32;;;;;;;3.10;1.80;;;;;;;11.33;77.57;99646.63;5094857;28;20435;-61
2022/11/07 04:31:59;;;;;;;3.80;1.80;;;;;;;11.42;77.08;99643.03;5104322;28;21011;-60
2022/11/07 04:34:25;;;;;;;6.53;1.67;;;;;;;11.41;77.28;99637.81;5101102;28;20471;-61
2022/11/07 04:36:52;;;;;;;5.17;1.60;;;;;;;11.36;77.28;99632.13;5101912;28;20495;-60
2022/11/07 04:39:18;;;;;;;4.77;1.80;;;;;;;11.44;77.52;99645.50;5085492;28;20516;-61
2022/11/07 04:41:46;;;;;;;2.67;1.37;;;;;;;11.41;77.15;99635.97;5089358;28;20539;-61
2022/11/07 04:44:13;;;;;;;3.23;1.47;;;;;;;11.37;77.23;99648.00;5103517;28;20467;-61
2022/11/07 04:46:40;;;;;;;3.53;1.80;;;;;;;11.43;77.27;99630.47;5101165;28;20503;-61
2022/11/07 04:49:06;;;;;;;5.60;1.77;;;;;;;11.30;77.82;99638.94;5085070;28;20479;-60
2022/11/07 04:51:33;;;;;;;7.40;2.27;;;;;;;11.31;77.78;99641.44;5083807;28;20484;-60
2022/11/07 04:53:59;;;;;;;2.93;1.67;;;;;;;11.27;77.89;99634.75;5101545;28;20439;-60
2022/11/07 04:56:26;;;;;;;5.70;1.90;;;;;;;11.41;77.64;99641.34;5092757;28;20515;-61
2022/11/07 04:58:54;;;;;;;4.30;1.80;;;;;;;11.32;77.92;99626.25;5084886;28;20484;-61
2022/11/07 05:01:20;;;;;;;10.87;2.70;;;;;;;11.31;78.05;99635.25;5089918;28;20484;-62
2022/11/07 05:03:47;;;;;;;5.57;2.13;;;;;;;11.35;77.89;99625.06;5096038;28;20447;-62
2022/11/07 05:06:14;;;;;;;4.50;2.17;;;;;;;11.22;78.59;99637.06;5094567;28;20487;-62
2022/11/07 05:08:41;;;;;;;4.50;2.00;;;;;;;11.18;78.59;99638.41;5099748;28;20471;-62
2022/11/07 05:11:08;;;;;;;8.93;2.40;;;;;;;11.07;79.50;99638.66;5084121;28;20800;-62
2022/11/07 05:13:34;;;;;;;7.17;1.83;;;;;;;11.02;79.89;99643.63;5087784;28;20460;-62
2022/11/07 05:16:02;;;;;;;8.60;2.30;;;;;;;11.04;79.64;99631.81;5090595;28;20472;-62
2022/11/07 05:18:29;;;;;;;10.07;2.57;;;;;;;11.11;79.41;99640.03;5081892;28;21003;-63
2022/11/07 05:20:56;;;;;;;5.43;1.93;;;;;;;11.06;79.59;99634.31;5089819;28;20475;-62
2022/11/07 05:23:21;;;;;;;3.93;2.10;;;;;;;11.12;79.17;99636.34;5100778;28;20994;-63
2022/11/07 05:25:49;;;;;;;5.27;2.03;;;;;;;11.24;79.05;99645.75;5093582;28;20484;-62
2022/11/07 05:28:17;;;;;;;2.60;1.50;;;;;;;11.30;78.72;99639.78;5081501;28;20217;-62
2022/11/07 05:30:44;;;;;;;4.73;1.70;;;;;;;11.34;78.85;99628.78;5089410;28;20468;-62
2022/11/07 05:33:14;;;;;;;4.63;1.67;;;;;;;11.41;78.67;99629.78;5090768;28;20448;-63
2022/11/07 05:35:41;;;;;;;4.20;2.07;;;;;;;11.41;78.59;99640.50;5092172;28;20567;-69
2022/11/07 05:38:08;;;;;;;5.43;2.13;;;;;;;11.36;78.50;99638.31;5094491;28;20451;-69
2022/11/07 05:40:35;;;;;;;5.50;1.93;;;;;;;11.31;78.95;99636.09;5087795;28;20842;-69
2022/11/07 05:43:03;;;;;;;3.97;1.70;;;;;;;11.37;78.70;99645.34;5080823;28;20566;-69
2022/11/07 05:45:30;;;;;;;9.00;2.50;;;;;;;11.33;78.59;99649.31;5082172;28;20930;-70
2022/11/07 05:47:57;;;;;;;3.57;1.93;;;;;;;11.39;78.42;99648.69;5086067;28;20448;-68
2022/11/07 05:50:25;;;;;;;7.23;1.83;;;;;;;11.35;78.77;99657.19;5091044;28;20451;-68
2022/11/07 05:52:52;;;;;;;6.73;2.00;;;;;;;11.36;78.62;99651.69;5096717;28;20516;-69
2022/11/07 05:55:19;;;;;;;4.37;1.73;;;;;;;11.27;78.93;99656.16;5093556;28;20457;-68
2022/11/07 05:57:45;;;;;;;5.57;1.80;;;;;;;11.21;79.18;99658.63;5082420;28;20444;-68
2022/11/07 06:00:13;;;;;;;5.90;1.93;;;;;;;11.23;79.25;99656.63;5088859;28;20475;-69
2022/11/07 06:02:40;;;;;;;6.43;1.83;;;;;;;11.19;79.52;99653.44;5094499;28;20483;-69
2022/11/07 06:05:07;;;;;;;7.23;2.07;;;;;;;11.23;79.43;99659.31;5078075;28;20472;-69
2022/11/07 06:07:35;;;;;;;12.40;2.03;;;;;;;11.27;79.14;99658.84;5088135;28;21038;-69
2022/11/07 06:10:02;;;;;;;7.33;2.10;;;;;;;11.25;79.18;99660.84;5080934;28;20467;-68
2022/11/07 06:12:29;;;;;;;4.07;2.00;;;;;;;11.33;79.03;99664.53;5080137;28;20502;-69
2022/11/07 06:14:55;;;;;;;4.97;1.80;;;;;;;11.24;79.24;99659.16;5081462;28;20455;-60
2022/11/07 06:17:22;;;;;;;7.27;2.20;;;;;;;11.25;79.04;99668.03;5083154;28;20512;-59
2022/11/07 06:19:48;;;;;;;4.00;1.60;;;;;;;11.28;79.08;99662.34;5079877;28;20479;-68
2022/11/07 06:22:15;;;;;;;6.23;2.00;;;;;;;11.33;79.01;99670.72;5084828;28;20484;-68
2022/11/07 06:24:43;;;;;;;6.10;1.80;;;;;;;11.24;79.01;99669.84;5084586;28;21690;-68
2022/11/07 06:27:10;;;;;;;6.33;1.80;;;;;;;11.27;79.03;99672.22;5097537;28;20492;-68
2022/11/07 06:29:36;;;;;;;4.07;2.00;;;;;;;11.18;78.97;99673.19;5085569;28;20487;-68
2022/11/07 06:32:03;;;;;;;3.60;1.67;;;;;;;11.25;78.84;99679.56;5081189;28;20480;-68
2022/11/07 06:34:30;;;;;;;4.60;1.67;;;;;;;11.09;79.26;99666.06;5081095;28;20448;-68
2022/11/07 06:36:57;;;;;;;5.87;1.83;;;;;;;11.10;79.26;99675.78;5080898;28;20502;-68
2022/11/07 06:39:23;;;;;;;4.53;1.67;;;;;;;11.09;79.03;99674.97;5081629;28;20448;-68
2022/11/07 06:41:51;;;;;;;7.27;2.13;;;;;;;11.15;79.19;99680.69;5079883;28;20480;-68
2022/11/07 06:44:18;;;;;;;6.93;1.80;;;;;;;11.20;78.96;99683.72;5094455;28;20440;-68
2022/11/07 06:46:46;;;;;;;10.43;2.10;;;;;;;11.05;79.60;99672.75;5096934;28;20492;-67
2022/11/07 06:49:12;;;;;;;9.57;2.43;;;;;;;11.09;79.19;99682.13;5080222;28;20515;-68
2022/11/07 06:51:39;;;;;;;5.17;1.83;;;;;;;11.15;79.26;99676.16;5092651;28;20506;-68
2022/11/07 06:54:07;;;;;;;7.50;1.83;;;;;;;11.18;79.22;99681.19;5101108;28;20451;-68
2022/11/07 06:56:33;;;;;;;5.43;1.97;;;;;;;11.28;78.62;99691.78;5098907;28;20506;-68
2022/11/07 06:59:01;;;;;;;7.33;2.37;;;;;;;11.36;78.12;99686.47;5101643;28;20447;-68
2022/11/07 07:01:28;;;;;;;3.53;1.60;;;;;;;11.42;78.03;99690.34;5086397;28;20472;-68
2022/11/07 07:03:55;;;;;;;9.07;1.97;;;;;;;11.40;77.78;99695.84;5081070;28;20485;-68
2022/11/07 07:06:21;;;;;;;6.33;2.33;;;;;;;11.47;77.60;99698.72;5080142;28;20480;-68
2022/11/07 07:08:48;;;;;;;4.73;1.93;;;;;;;11.35;77.68;99711.53;5092706;28;20495;-68
2022/11/07 07:11:16;;;;;;;6.33;2.13;;;;;;;11.30;78.13;99705.81;5099579;28;20472;-68
2022/11/07 07:13:43;;;;;;;4.27;1.60;;;;;;;11.39;77.81;99702.22;5081062;28;20959;-69
2022/11/07 07:16:13;;;;;;;5.00;2.03;;;;;;;11.34;77.89;99717.09;5089852;28;20474;-69
2022/11/07 07:18:43;;;;;;;4.53;1.50;;;;;;;11.35;77.86;99718.75;5098273;28;20439;-69
2022/11/07 07:21:11;;;;;;;4.20;1.53;;;;;;;11.55;77.14;99709.47;5079570;28;20492;-69
2022/11/07 07:23:38;;;;;;;4.60;1.70;;;;;;;11.67;76.69;99712.72;5081134;28;20513;-69
2022/11/07 07:26:07;;;;;;;8.30;1.70;;;;;;;11.86;75.91;99708.94;5079139;28;20488;-69
2022/11/07 07:28:36;;;;;;;4.60;2.17;;;;;;;12.21;74.31;99710.56;5080983;28;20466;-68
2022/11/07 07:31:08;;;;;;;5.30;1.93;;;;;;;12.49;73.20;99710.28;5094648;28;20471;-69
2022/11/07 07:33:37;;;;;;;6.13;2.07;;;;;;;12.22;73.41;99703.34;5080476;28;20476;-69
2022/11/07 07:36:04;;;;;;;4.20;1.80;;;;;;;12.14;74.18;99700.69;5079408;28;20467;-69
2022/11/07 07:38:31;;;;;;;7.73;2.00;;;;;;;12.74;72.69;99716.50;5081115;28;20571;-69
2022/11/07 07:40:58;;;;;;;4.23;1.57;;;;;;;12.76;71.46;99710.97;5076568;28;20530;-68
2022/11/07 07:43:25;;;;;;;3.97;2.00;;;;;;;12.78;71.55;99712.47;5066173;28;20980;-67
2022/11/07 07:45:52;;;;;;;5.87;2.13;;;;;;;13.10;70.31;99712.59;5059539;28;20523;-67
2022/11/07 07:48:19;;;;;;;2.20;1.40;;;;;;;13.07;70.36;99719.16;5067496;28;20508;-67
2022/11/07 07:50:49;;;;;;;8.23;1.83;;;;;;;13.93;67.66;99719.41;5076085;28;20486;-66
2022/11/07 07:53:15;;;;;;;4.40;1.90;;;;;;;15.04;63.32;99728.91;5060125;28;20456;-67
2022/11/07 07:55:42;;;;;;;5.00;1.80;;;;;;;14.91;62.69;99717.09;5073928;28;20475;-67
2022/11/07 07:58:09;;;;;;;4.63;1.70;;;;;;;13.78;66.38;99713.09;5078223;28;21048;-67
2022/11/07 08:00:35;;;;;;;3.83;1.80;;;;;;;13.38;68.07;99715.75;5079354;28;20492;-67
2022/11/07 08:03:03;;;;;;;5.10;1.90;;;;;;;12.86;70.24;99708.94;5060252;28;20519;-67
2022/11/07 08:05:29;;;;;;;3.40;1.57;;;;;;;12.88;70.65;99709.63;5069976;28;20839;-67
2022/11/07 08:07:57;;;;;;;11.40;2.07;;;;;;;12.86;70.90;99716.97;5075410;28;20437;-67
2022/11/07 08:10:24;;;;;;;5.73;1.60;;;;;;;12.86;71.04;99716.97;5058342;28;20477;-68
2022/11/07 08:12:53;;;;;;;4.00;2.13;;;;;;;13.41;69.30;99714.59;5060151;28;20608;-68
2022/11/07 08:15:20;;;;;;;6.93;1.80;;;;;;;14.09;66.38;99713.13;5064513;28;20499;-67
2022/11/07 08:17:47;;;;;;;4.73;2.43;;;;;;;14.38;65.03;99719.69;5058415;28;20972;-68
2022/11/07 08:20:16;;;;;;;10.03;2.00;;;;;;;14.54;64.40;99729.47;5076080;28;20459;-67
2022/11/07 08:22:43;;;;;;;6.23;1.93;;;;;;;13.85;66.12;99725.69;5070140;28;20483;-68
2022/11/07 08:25:11;;;;;;;4.40;1.57;;;;;;;13.25;68.56;99726.19;5078347;28;20471;-68
2022/11/07 08:27:38;;;;;;;4.70;1.90;;;;;;;13.02;69.81;99731.38;5063103;28;20484;-68
2022/11/07 08:30:07;;;;;;;5.97;1.90;;;;;;;12.95;70.70;99725.84;5060272;28;20838;-68
2022/11/07 08:32:34;;;;;;;8.70;2.00;;;;;;;13.22;69.71;99727.34;5058786;28;20606;-69
2022/11/07 08:35:01;;;;;;;6.80;2.40;;;;;;;13.60;68.48;99729.47;5078479;28;20475;-68
2022/11/07 08:37:28;;;;;;;4.20;2.00;;;;;;;13.55;68.23;99732.66;5079071;28;20477;-69
2022/11/07 08:39:54;;;;;;;7.80;1.83;;;;;;;13.51;68.44;99718.75;5076630;28;20848;-68
2022/11/07 08:42:22;;;;;;;3.87;1.80;;;;;;;13.10;70.38;99729.53;5063862;28;21076;-69
2022/11/07 08:44:49;;;;;;;5.20;1.93;;;;;;;12.94;71.16;99725.03;5080419;28;20436;-68
2022/11/07 08:47:16;;;;;;;7.10;2.10;;;;;;;13.16;70.17;99723.50;5078541;28;20860;-68
2022/11/07 08:49:42;;;;;;;4.70;2.00;;;;;;;13.99;67.66;99729.47;5079553;28;20432;-68
2022/11/07 08:52:09;;;;;;;6.23;1.80;;;;;;;14.84;64.00;99727.75;5097084;28;20464;-69
2022/11/07 08:54:36;;;;;;;4.87;2.20;;;;;;;15.01;62.90;99720.38;5088586;28;20506;-68
2022/11/07 08:57:02;;;;;;;5.60;1.70;;;;;;;15.47;61.11;99733.72;5078566;28;20506;-68
2022/11/07 08:59:30;;;;;;;8.63;1.60;;;;;;;14.87;62.69;99719.31;5079884;28;20502;-68
2022/11/07 09:01:57;;;;;;;6.83;2.03;;;;;;;16.05;59.44;99720.41;5079100;28;20476;-68
2022/11/07 09:04:24;;;;;;;4.80;1.70;;;;;;;16.62;57.17;99707.09;5078518;28;20453;-68
2022/11/07 09:06:50;;;;;;;7.20;1.70;;;;;;;16.29;58.34;99719.22;5078065;28;20519;-67
2022/11/07 09:09:17;;;;;;;7.93;2.60;;;;;;;16.33;57.12;99717.81;5088762;28;20479;-68
2022/11/07 09:11:44;;;;;;;4.43;1.90;;;;;;;15.78;59.74;99717.38;5102063;28;20613;-68
2022/11/07 09:14:10;;;;;;;7.60;2.00;;;;;;;16.22;58.40;99721.03;5103187;28;20468;-68
2022/11/07 09:16:38;;;;;;;10.47;2.30;;;;;;;16.75;56.12;99720.72;5100616;28;20525;-68
2022/11/07 09:19:05;;;;;;;6.57;1.90;;;;;;;16.92;55.85;99724.84;5102261;28;20436;-68
2022/11/07 09:21:32;;;;;;;6.80;2.60;;;;;;;16.87;55.87;99721.91;5101617;28;20586;-67
2022/11/07 09:23:58;;;;;;;3.83;2.17;;;;;;;17.16;54.72;99730.84;5103017;28;20560;-68
2022/11/07 09:26:25;;;;;;;6.93;2.40;;;;;;;16.69;56.70;99730.41;5100127;28;20542;-67
2022/11/07 09:28:51;;;;;;;4.67;1.47;;;;;;;16.12;58.50;99737.50;5103252;28;20472;-68
2022/11/07 09:31:18;;;;;;;9.60;2.53;;;;;;;15.88;59.43;99737.81;5066027;28;21021;-68
2022/11/07 09:33:46;;;;;;;5.30;1.77;;;;;;;15.48;61.39;99746.16;5069258;28;20476;-68
2022/11/07 09:36:13;;;;;;;5.93;2.10;;;;;;;14.83;62.94;99744.94;5081779;28;20472;-67
2022/11/07 09:38:40;;;;;;;6.73;1.80;;;;;;;14.96;63.43;99752.38;5083296;28;20468;-67
2022/11/07 09:41:12;;;;;;;5.77;1.80;;;;;;;14.58;64.60;99761.25;5081019;28;20478;-67
2022/11/07 09:43:52;;;;;;;7.20;1.63;;;;;;;14.42;65.33;99746.00;5080868;28;20492;-67
2022/11/07 09:46:28;;;;;;;8.10;1.90;;;;;;;14.37;66.66;99748.41;5082024;28;20533;-67
2022/11/07 09:48:59;;;;;;;11.13;2.40;;;;;;;14.43;66.23;99765.69;5062477;28;20441;-68
2022/11/07 09:51:31;;;;;;;6.60;2.53;;;;;;;14.32;66.89;99748.09;5069779;28;20526;-68
2022/11/07 09:54:00;;;;;;;6.50;1.83;;;;;;;14.46;66.48;99768.00;5081801;28;20441;-67
2022/11/07 09:56:28;;;;;;;6.80;1.73;;;;;;;14.65;65.91;99761.38;5081960;28;20472;-67
2022/11/07 09:58:55;;;;;;;3.70;1.50;;;;;;;14.65;65.79;99764.91;5082038;28;20462;-67
2022/11/07 10:01:22;;;;;;;4.40;1.47;;;;;;;14.73;65.26;99768.56;5069319;28;20474;-68
2022/11/07 10:03:49;;;;;;;4.03;1.63;;;;;;;14.54;66.32;99776.03;5062446;28;20467;-67
2022/11/07 10:06:22;;;;;;;8.67;1.93;;;;;;;14.38;67.23;99776.16;5072070;28;20488;-67
2022/11/07 10:08:51;;;;;;;7.33;2.13;;;;;;;14.35;67.55;99781.88;5067270;28;20445;-67
2022/11/07 10:11:29;;;;;;;4.50;1.80;;;;;;;14.20;67.87;99788.00;5062157;28;20469;-67
2022/11/07 10:14:08;;;;;;;9.37;2.10;;;;;;;14.06;68.82;99786.91;5062565;28;20461;-67
2022/11/07 10:16:46;;;;;;;5.77;1.57;;;;;;;14.21;68.66;99788.84;5059995;28;20508;-67
2022/11/07 10:19:22;;;;;;;6.33;2.27;;;;;;;14.15;68.58;99781.47;5062254;28;20869;-67
2022/11/07 10:21:58;;;;;;;4.60;1.93;;;;;;;14.45;67.82;99790.56;5060345;28;20495;-67
2022/11/07 10:24:36;;;;;;;5.30;2.33;;;;;;;14.43;68.05;99792.59;5061415;28;20425;-68
2022/11/07 10:27:03;;;;;;;7.10;2.27;;;;;;;14.47;68.13;99804.66;5060937;28;20512;-67
2022/11/07 10:29:35;;;;;;;4.87;1.70;;;;;;;14.40;68.36;99796.47;5078801;28;20464;-68
2022/11/07 10:32:15;;;;;;;7.47;2.30;;;;;;;14.65;66.80;99799.88;5070253;28;20469;-67
2022/11/07 10:34:44;;;;;;;3.70;1.90;;;;;;;14.73;66.81;99801.69;5061867;28;20941;-67
2022/11/07 10:37:12;;;;;;;3.70;1.60;;;;;;;14.90;66.30;99817.72;5079692;28;20500;-68
2022/11/07 10:39:39;;;;;;;5.37;1.63;;;;;;;14.69;66.76;99811.97;5081083;28;20437;-67
2022/11/07 10:42:08;;;;;;;5.87;2.20;;;;;;;14.54;67.56;99797.56;5079202;28;20484;-67
2022/11/07 10:44:35;;;;;;;6.60;1.60;;;;;;;14.47;68.11;99800.13;5081617;28;20436;-67
2022/11/07 10:47:04;;;;;;;5.00;2.07;;;;;;;14.56;67.59;99798.22;5062516;28;20485;-67
2022/11/07 10:49:32;;;;;;;8.30;2.63;;;;;;;14.81;67.08;99800.78;5061779;28;20430;-67
2022/11/07 10:52:06;;;;;;;6.10;2.47;;;;;;;14.54;67.99;99794.88;5060116;28;20509;-68
2022/11/07 10:54:39;;;;;;;11.60;2.40;;;;;;;14.45;67.99;99793.25;5078505;28;20444;-68
2022/11/07 10:57:10;;;;;;;8.57;2.83;;;;;;;15.14;66.77;99803.22;5079566;28;20563;-68
2022/11/07 10:59:39;;;;;;;6.50;1.80;;;;;;;14.93;66.47;99802.06;5081225;28;20438;-68
2022/11/07 11:02:17;;;;;;;7.83;2.60;;;;;;;14.67;67.42;99807.78;5039102;28;20493;-68
2022/11/07 11:04:48;;;;;;;6.47;1.77;;;;;;;14.65;67.49;99799.03;5056029;28;20469;-68
2022/11/07 11:07:15;;;;;;;5.50;2.13;;;;;;;14.84;67.64;99811.19;5061539;28;21016;-67
2022/11/07 11:09:51;;;;;;;7.63;3.50;;;;;;;15.02;66.94;99809.03;5080444;28;20433;-68
2022/11/07 11:12:21;;;;;;;5.70;2.07;;;;;;;15.04;67.24;99804.31;5064333;28;20508;-68
2022/11/07 11:14:49;;;;;;;12.40;2.00;;;;;;;15.01;66.80;99801.97;5061184;28;20480;-68
2022/11/07 11:17:22;;;;;;;10.37;2.50;;;;;;;15.13;67.08;99799.69;5057630;28;20477;-68
2022/11/07 11:19:51;;;;;;;8.63;2.20;;;;;;;14.99;67.24;99795.94;5060947;28;20446;-67
2022/11/07 11:22:19;;;;;;;6.73;2.10;;;;;;;14.91;67.00;99795.16;5060768;28;20501;-68
2022/11/07 11:24:46;;;;;;;6.67;2.40;;;;;;;14.81;67.65;99792.72;5060283;28;20907;-67
2022/11/07 11:27:17;;;;;;;3.30;1.70;;;;;;;14.88;67.52;99789.13;5048511;28;20525;-67
2022/11/07 11:29:49;;;;;;;6.53;2.13;;;;;;;14.99;67.81;99778.94;5042212;28;20427;-67
2022/11/07 11:32:21;;;;;;;3.70;1.53;;;;;;;15.12;67.12;99786.41;5059039;28;20477;-67
2022/11/07 11:34:58;;;;;;;9.47;2.37;;;;;;;15.68;65.51;99781.47;5075658;28;20507;-68
2022/11/07 11:37:26;;;;;;;5.90;2.57;;;;;;;15.79;64.43;99783.72;5045934;28;20552;-68
2022/11/07 11:40:06;;;;;;;5.40;1.97;;;;;;;15.71;64.96;99789.22;5060364;28;20513;-68
2022/11/07 11:42:40;;;;;;;3.40;1.60;;;;;;;15.10;66.41;99777.66;5085344;28;20530;-68
2022/11/07 11:45:15;;;;;;;5.03;2.00;;;;;;;14.71;68.26;99789.44;5098272;28;20436;-68
2022/11/07 11:47:46;;;;;;;6.20;2.30;;;;;;;15.05;67.61;99778.22;5091851;28;20503;-68
2022/11/07 11:50:15;;;;;;;9.07;2.17;;;;;;;14.95;68.17;99788.41;5079215;28;20582;-68
2022/11/07 11:52:42;;;;;;;2.73;1.80;;;;;;;14.84;68.31;99792.34;5079692;28;20547;-69